createdAt,value
2023-01-29T00:01:33.219Z,101192.41
2023-01-29T00:04:20.771Z,101194.72
2023-01-29T00:07:08.722Z,101199.28
2023-01-29T00:09:55.931Z,101199.28
2023-01-29T00:12:47.671Z,101202.38
2023-01-29T00:15:34.771Z,101188.50
2023-01-29T00:18:22.104Z,101167.00
2023-01-29T00:21:19.492Z,101171.94
2023-01-29T00:24:11.193Z,101180.41
2023-01-29T00:34:43.179Z,101158.53
2023-01-29T00:37:30.059Z,101165.16
2023-01-29T00:40:19.100Z,101161.41
2023-01-29T00:43:24.580Z,101149.22
2023-01-29T00:46:11.539Z,101136.19
2023-01-29T00:49:02.085Z,101122.34
2023-01-29T00:52:07.501Z,101143.88
2023-01-29T00:54:56.291Z,101137.88
2023-01-29T00:57:42.798Z,101150.47
2023-01-29T01:00:30.231Z,101153.81
2023-01-29T01:03:18.132Z,101134.16
2023-01-29T01:06:09.837Z,101139.50
2023-01-29T01:09:14.639Z,101142.84
2023-01-29T01:12:02.675Z,101151.75
2023-01-29T01:14:49.383Z,101156.53
2023-01-29T01:17:37.451Z,101147.63
2023-01-29T01:20:25.499Z,101158.59
2023-01-29T01:23:12.478Z,101155.69
2023-01-29T01:25:59.323Z,101161.25
2023-01-29T01:28:45.836Z,101150.72
2023-01-29T01:31:32.259Z,101139.94
2023-01-29T01:34:19.500Z,101125.25
2023-01-29T01:37:08.367Z,101151.53
2023-01-29T01:39:58.778Z,101156.50
2023-01-29T01:42:48.915Z,101155.47
2023-01-29T01:45:37.687Z,101153.19
2023-01-29T01:48:25.404Z,101147.59
2023-01-29T01:51:12.686Z,101151.75
2023-01-29T01:54:09.286Z,101118.84
2023-01-29T01:57:09.312Z,101156.72
2023-01-29T02:00:10.561Z,101153.81
2023-01-29T02:03:24.846Z,101139.94
2023-01-29T02:06:30.326Z,101132.72
2023-01-29T02:09:36.208Z,101115.09
2023-01-29T02:12:23.471Z,101150.47
2023-01-29T02:15:11.173Z,101150.06
2023-01-29T02:17:57.393Z,101143.03
2023-01-29T02:21:07.957Z,101140.97
2023-01-29T02:24:28.439Z,101158.56
2023-01-29T02:27:28.017Z,101154.22
2023-01-29T02:30:34.803Z,101154.84
2023-01-29T02:33:38.804Z,101118.41
2023-01-29T02:36:43.457Z,101088.03
2023-01-29T02:39:42.319Z,101136.44
2023-01-29T02:42:49.296Z,101111.00
2023-01-29T02:45:45.276Z,101123.59
2023-01-29T02:48:54.881Z,101129.41
2023-01-29T02:51:51.821Z,101114.91
2023-01-29T02:54:46.187Z,101118.44
2023-01-29T02:57:36.354Z,101114.50
2023-01-29T03:00:31.007Z,101118.66
2023-01-29T03:03:25.510Z,101108.09
2023-01-29T03:06:24.330Z,101113.28
2023-01-29T03:09:25.778Z,101106.03
2023-01-29T03:12:36.999Z,101101.88
2023-01-29T03:15:29.259Z,101107.03
2023-01-29T03:18:43.822Z,101104.53
2023-01-29T03:21:55.392Z,101097.50
2023-01-29T03:25:23.031Z,101067.53
2023-01-29T03:28:29.231Z,101069.38
2023-01-29T03:31:36.519Z,101071.41
2023-01-29T03:34:24.885Z,101053.84
2023-01-29T03:37:27.537Z,101049.69
2023-01-29T03:40:15.430Z,101030.09
2023-01-29T03:43:11.546Z,101045.75
2023-01-29T03:46:45.889Z,101044.91
2023-01-29T03:49:41.500Z,101027.97
2023-01-29T03:52:40.273Z,101044.91
2023-01-29T03:55:43.246Z,101034.56
2023-01-29T03:58:59.907Z,101033.31
2023-01-29T04:02:02.115Z,101030.41
2023-01-29T04:04:52.062Z,101031.03
2023-01-29T04:07:43.122Z,101041.59
2023-01-29T04:10:32.792Z,101019.25
2023-01-29T04:13:20.280Z,100999.00
2023-01-29T04:16:14.988Z,101010.53
2023-01-29T04:19:24.184Z,101012.78
2023-01-29T04:22:49.050Z,101025.63
2023-01-29T04:25:45.472Z,101005.34
2023-01-29T04:29:10.711Z,100973.97
2023-01-29T04:32:05.514Z,101004.53
2023-01-29T04:34:56.199Z,101001.41
2023-01-29T04:37:49.059Z,100995.81
2023-01-29T04:40:43.307Z,100999.72
2023-01-29T04:43:46.321Z,100997.06
2023-01-29T04:46:38.793Z,101003.44
2023-01-29T04:49:40.901Z,101000.75
2023-01-29T04:52:30.034Z,100990.84
2023-01-29T04:55:26.108Z,100985.03
2023-01-29T04:58:35.345Z,100964.78
2023-01-29T05:01:25.871Z,100973.03
2023-01-29T05:04:14.878Z,100974.88
2023-01-29T05:07:04.413Z,100978.41
2023-01-29T05:09:51.537Z,100974.69
2023-01-29T05:12:38.949Z,100980.69
2023-01-29T05:15:35.808Z,100943.50
2023-01-29T05:18:22.484Z,100967.03
2023-01-29T05:21:09.714Z,100957.94
2023-01-29T05:24:23.398Z,100951.34
2023-01-29T05:27:44.130Z,100965.00
2023-01-29T05:30:32.332Z,100931.97
2023-01-29T05:33:24.426Z,100956.28
2023-01-29T05:36:11.002Z,100927.81
2023-01-29T05:38:57.484Z,100953.00
2023-01-29T05:41:44.297Z,100920.19
2023-01-29T05:44:30.931Z,100910.50
2023-01-29T05:47:20.769Z,100948.91
2023-01-29T05:50:09.802Z,100917.53
2023-01-29T05:53:00.746Z,100951.41
2023-01-29T05:55:48.124Z,100938.19
2023-01-29T05:58:34.982Z,100939.22
2023-01-29T06:01:23.647Z,100930.31
2023-01-29T06:04:10.306Z,100949.28
2023-01-29T06:06:59.697Z,100957.34
2023-01-29T06:09:46.497Z,100961.06
2023-01-29T06:12:33.025Z,100961.06
2023-01-29T06:15:20.044Z,100947.44
2023-01-29T06:18:06.303Z,100966.25
2023-01-29T06:20:53.119Z,100938.56
2023-01-29T06:23:40.097Z,100915.63
2023-01-29T06:26:27.099Z,100963.13
2023-01-29T06:29:13.733Z,100976.59
2023-01-29T06:32:00.360Z,100977.41
2023-01-29T06:34:49.461Z,100972.88
2023-01-29T06:37:39.017Z,101007.19
2023-01-29T06:40:27.231Z,101003.25
2023-01-29T06:43:14.054Z,100967.31
2023-01-29T06:46:00.729Z,100997.88
2023-01-29T06:48:47.540Z,100995.41
2023-01-29T06:51:38.895Z,100957.16
2023-01-29T06:54:29.484Z,100988.75
2023-01-29T06:57:16.043Z,101005.09
2023-01-29T07:00:03.120Z,100961.25
2023-01-29T07:02:50.491Z,100974.03
2023-01-29T07:05:37.981Z,100983.31
2023-01-29T07:08:24.183Z,100983.94
2023-01-29T07:11:11.025Z,100958.72
2023-01-29T07:14:00.609Z,100958.31
2023-01-29T07:16:50.685Z,100969.44
2023-01-29T07:19:37.033Z,100966.31
2023-01-29T07:22:23.546Z,100964.03
2023-01-29T07:25:10.296Z,100947.88
2023-01-29T07:27:57.767Z,100961.69
2023-01-29T07:30:44.726Z,100944.41
2023-01-29T07:33:32.018Z,100950.72
2023-01-29T07:36:18.131Z,100953.22
2023-01-29T07:39:05.051Z,100946.16
2023-01-29T07:41:51.521Z,100923.03
2023-01-29T07:44:38.151Z,100950.91
2023-01-29T07:47:24.214Z,100949.72
2023-01-29T07:50:11.273Z,100899.16
2023-01-29T07:52:58.046Z,100945.78
2023-01-29T07:55:45.490Z,100949.09
2023-01-29T07:58:33.931Z,100955.47
2023-01-29T08:01:22.129Z,100950.72
2023-01-29T08:04:08.349Z,100960.63
2023-01-29T08:06:55.550Z,100942.25
2023-01-29T08:09:42.160Z,100970.34
2023-01-29T08:12:29.058Z,100943.66
2023-01-29T08:15:15.541Z,100966.34
2023-01-29T08:22:49.732Z,100966.94
2023-01-29T08:25:39.225Z,100968.16
2023-01-29T08:28:27.545Z,100916.16
2023-01-29T08:31:18.331Z,100953.63
2023-01-29T08:34:04.811Z,100957.91
2023-01-29T08:36:51.717Z,100928.94
2023-01-29T08:39:38.398Z,100940.81
2023-01-29T08:42:25.134Z,100938.75
2023-01-29T08:45:13.971Z,100929.41
2023-01-29T08:48:52.908Z,100925.88
2023-01-29T08:52:34.203Z,100914.88
2023-01-29T08:55:21.823Z,100916.72
2023-01-29T08:58:12.725Z,100900.41
2023-01-29T09:01:11.118Z,100903.41
2023-01-29T09:03:57.845Z,100871.50
2023-01-29T09:06:44.251Z,100890.97
2023-01-29T09:09:31.301Z,100898.31
2023-01-29T09:12:21.085Z,100906.56
2023-01-29T09:15:08.546Z,100917.50
2023-01-29T09:17:55.202Z,100886.16
2023-01-29T09:20:48.035Z,100915.63
2023-01-29T09:23:36.307Z,100922.06
2023-01-29T09:26:23.321Z,100922.53
2023-01-29T09:29:12.874Z,100924.53
2023-01-29T09:31:59.800Z,100911.50
2023-01-29T09:34:46.015Z,100918.78
2023-01-29T09:37:32.760Z,100919.75
2023-01-29T09:40:58.381Z,100925.38
2023-01-29T09:43:46.744Z,100914.97
2023-01-29T09:46:41.405Z,100915.56
2023-01-29T09:49:35.930Z,100913.03
2023-01-29T09:52:28.267Z,100892.63
2023-01-29T09:55:28.155Z,100916.25
2023-01-29T09:58:20.004Z,100916.72
2023-01-29T10:01:45.801Z,100911.91
2023-01-29T10:05:09.910Z,100901.72
2023-01-29T10:08:17.038Z,100912.75
2023-01-29T10:11:26.803Z,100906.53
2023-01-29T10:14:38.038Z,100893.72
2023-01-29T10:17:35.351Z,100879.31
2023-01-29T10:20:43.169Z,100886.50
2023-01-29T10:23:39.065Z,100883.16
2023-01-29T10:26:29.711Z,100884.34
2023-01-29T10:29:19.849Z,100884.50
2023-01-29T10:32:06.968Z,100820.16
2023-01-29T10:35:00.173Z,100863.91
2023-01-29T10:37:47.088Z,100847.94
2023-01-29T10:41:04.364Z,100804.44
2023-01-29T10:44:29.220Z,100847.66
2023-01-29T10:47:40.631Z,100847.66
2023-01-29T10:50:39.749Z,100814.66
2023-01-29T10:53:43.155Z,100836.19
2023-01-29T10:56:47.908Z,100835.75
2023-01-29T10:59:43.649Z,100787.38
2023-01-29T11:02:30.834Z,100821.97
2023-01-29T11:05:27.217Z,100826.16
2023-01-29T11:08:17.707Z,100790.31
2023-01-29T11:11:11.927Z,100834.53
2023-01-29T11:14:07.300Z,100820.38
2023-01-29T11:17:02.222Z,100794.16
2023-01-29T11:19:53.413Z,100811.22
2023-01-29T11:22:54.408Z,100796.19
2023-01-29T11:25:52.736Z,100746.34
2023-01-29T11:28:44.758Z,100803.59
2023-01-29T11:31:38.763Z,100798.13
2023-01-29T11:34:30.542Z,100771.59
2023-01-29T11:37:19.799Z,100783.00
2023-01-29T11:40:45.019Z,100795.41
2023-01-29T11:43:32.810Z,100759.09
2023-01-29T11:46:26.568Z,100779.44
2023-01-29T11:49:23.819Z,100749.19
2023-01-29T11:52:12.230Z,100747.78
2023-01-29T11:55:02.411Z,100695.03
2023-01-29T11:58:38.153Z,100744.69
2023-01-29T12:01:35.279Z,100745.94
2023-01-29T12:04:24.312Z,100718.84
2023-01-29T12:11:34.999Z,100724.38
2023-01-29T12:14:44.112Z,100717.06
2023-01-29T12:17:33.858Z,100708.72
2023-01-29T12:20:26.818Z,100721.75
2023-01-29T12:23:42.291Z,100716.88
2023-01-29T12:26:55.223Z,100718.97
2023-01-29T12:30:08.076Z,100719.94
2023-01-29T12:33:15.675Z,100715.00
2023-01-29T12:36:15.054Z,100721.00
2023-01-29T12:39:01.574Z,100722.84
2023-01-29T12:42:08.754Z,100711.84
2023-01-29T12:45:03.019Z,100720.41
2023-01-29T12:47:59.124Z,100686.09
2023-01-29T12:50:46.409Z,100704.34
2023-01-29T12:53:37.762Z,100696.72
2023-01-29T12:56:32.970Z,100692.50
2023-01-29T12:59:33.299Z,100685.34
2023-01-29T13:02:46.350Z,100688.03
2023-01-29T13:05:39.162Z,100654.66
2023-01-29T13:08:29.762Z,100640.47
2023-01-29T13:11:22.420Z,100683.44
2023-01-29T13:14:23.356Z,100666.06
2023-01-29T13:17:14.980Z,100675.59
2023-01-29T13:20:19.905Z,100657.31
2023-01-29T13:23:16.233Z,100619.25
2023-01-29T13:26:03.051Z,100646.84
2023-01-29T13:28:50.140Z,100597.22
2023-01-29T13:31:41.397Z,100634.19
2023-01-29T13:34:31.847Z,100641.25
2023-01-29T13:37:28.289Z,100647.91
2023-01-29T13:40:25.211Z,100656.97
2023-01-29T13:43:20.045Z,100636.03
2023-01-29T13:46:15.885Z,100652.69
2023-01-29T13:49:05.124Z,100667.72
2023-01-29T13:51:52.245Z,100628.03
2023-01-29T13:54:41.919Z,100655.75
2023-01-29T13:57:37.084Z,100664.22
2023-01-29T14:00:31.055Z,100602.59
2023-01-29T14:03:18.219Z,100667.84
2023-01-29T14:06:05.596Z,100664.56
2023-01-29T14:08:52.452Z,100652.50
2023-01-29T14:11:48.425Z,100652.97
2023-01-29T14:14:48.673Z,100645.69
2023-01-29T14:17:40.588Z,100636.03
2023-01-29T14:20:46.062Z,100632.75
2023-01-29T14:23:41.707Z,100624.91
2023-01-29T14:26:34.134Z,100628.19
2023-01-29T14:29:34.365Z,100630.75
2023-01-29T14:32:26.362Z,100618.09
2023-01-29T14:35:23.903Z,100605.53
2023-01-29T14:38:14.498Z,100631.47
2023-01-29T14:41:20.944Z,100603.16
2023-01-29T14:44:45.392Z,100629.25
2023-01-29T14:47:33.765Z,100629.72
2023-01-29T14:50:30.085Z,100627.59
2023-01-29T14:53:43.405Z,100626.56
2023-01-29T14:56:59.686Z,100615.28
2023-01-29T15:00:11.843Z,100604.25
2023-01-29T15:03:06.408Z,100611.28
2023-01-29T15:06:07.447Z,100611.16
2023-01-29T15:09:36.321Z,100621.63
2023-01-29T15:12:40.407Z,100616.78
2023-01-29T15:15:51.856Z,100618.34
2023-01-29T15:18:44.354Z,100604.13
2023-01-29T15:21:47.257Z,100614.69
2023-01-29T15:24:39.206Z,100607.53
2023-01-29T15:27:51.780Z,100601.69
2023-01-29T15:30:39.185Z,100596.28
2023-01-29T15:38:43.028Z,100596.28
2023-01-29T15:41:29.573Z,100575.75
2023-01-29T15:44:23.905Z,100591.00
2023-01-29T15:47:10.797Z,100591.59
2023-01-29T15:49:58.081Z,100585.13
2023-01-29T15:52:49.336Z,100580.00
2023-01-29T16:02:42.171Z,100567.31
2023-01-29T16:05:30.481Z,100578.09
2023-01-29T16:08:31.020Z,100562.84
2023-01-29T16:11:27.025Z,100566.97
2023-01-29T16:14:23.188Z,100569.88
2023-01-29T16:17:35.238Z,100570.84
2023-01-29T16:21:09.103Z,100564.97
2023-01-29T16:24:07.074Z,100561.22
2023-01-29T16:27:02.798Z,100556.06
2023-01-29T16:29:51.876Z,100558.53
2023-01-29T16:32:38.384Z,100550.53
2023-01-29T16:35:25.211Z,100544.56
2023-01-29T16:38:33.185Z,100546.44
2023-01-29T16:41:23.766Z,100537.31
2023-01-29T16:44:17.250Z,100549.28
2023-01-29T16:47:40.096Z,100517.59
2023-01-29T16:50:40.712Z,100536.84
2023-01-29T16:54:00.225Z,100539.88
2023-01-29T16:57:04.335Z,100526.53
2023-01-29T16:59:58.566Z,100528.75
2023-01-29T17:02:48.086Z,100537.63
2023-01-29T17:05:38.580Z,100527.44
2023-01-29T17:08:33.360Z,100526.38
2023-01-29T17:11:31.815Z,100506.34
2023-01-29T17:14:20.991Z,100516.31
2023-01-29T17:17:15.484Z,100522.63
2023-01-29T17:20:19.218Z,100509.97
2023-01-29T17:23:05.938Z,100493.91
2023-01-29T17:25:52.380Z,100501.66
2023-01-29T17:28:40.111Z,100503.66
2023-01-29T17:31:26.598Z,100499.91
2023-01-29T17:34:15.611Z,100463.31
2023-01-29T17:37:01.860Z,100468.25
2023-01-29T17:39:50.693Z,100477.16
2023-01-29T17:42:37.071Z,100474.44
2023-01-29T17:45:23.749Z,100456.16
2023-01-29T17:48:23.214Z,100487.00
2023-01-29T17:51:14.763Z,100440.34
2023-01-29T17:54:01.355Z,100469.06
2023-01-29T17:56:48.538Z,100461.66
2023-01-29T17:59:35.171Z,100451.94
2023-01-29T18:02:29.553Z,100455.69
2023-01-29T18:05:17.451Z,100426.75
2023-01-29T18:08:05.041Z,100449.38
2023-01-29T18:10:51.957Z,100458.03
2023-01-29T18:13:42.096Z,100463.66
2023-01-29T18:16:29.409Z,100447.16
2023-01-29T18:19:22.688Z,100411.03
2023-01-29T18:22:09.331Z,100446.31
2023-01-29T18:24:56.277Z,100458.63
2023-01-29T18:27:42.997Z,100446.91
2023-01-29T18:30:30.728Z,100434.47
2023-01-29T18:33:18.162Z,100445.47
2023-01-29T18:41:27.281Z,100430.59
2023-01-29T18:44:13.690Z,100417.34
2023-01-29T18:47:00.917Z,100411.94
2023-01-29T18:49:47.184Z,100384.34
2023-01-29T18:52:34.537Z,100404.13
2023-01-29T18:55:22.127Z,100398.94
2023-01-29T18:58:27.841Z,100386.31
2023-01-29T19:01:17.263Z,100368.16
2023-01-29T19:04:03.790Z,100377.84
2023-01-29T19:06:50.205Z,100381.97
2023-01-29T19:09:38.016Z,100328.09
2023-01-29T19:12:46.692Z,100329.94
2023-01-29T19:15:34.924Z,100372.44
2023-01-29T19:18:21.783Z,100339.31
2023-01-29T19:21:11.576Z,100348.69
2023-01-29T19:23:58.276Z,100364.38
2023-01-29T19:26:47.174Z,100350.94
2023-01-29T19:29:34.504Z,100360.19
2023-01-29T19:32:20.868Z,100371.06
2023-01-29T19:35:07.567Z,100354.78
2023-01-29T19:37:54.612Z,100325.38
2023-01-29T19:48:14.680Z,100351.47
2023-01-29T19:51:40.204Z,100338.72
2023-01-29T19:54:27.933Z,100313.88
2023-01-29T19:57:15.180Z,100339.50
2023-01-29T20:00:02.302Z,100335.19
2023-01-29T20:02:51.005Z,100326.88
2023-01-29T20:05:37.737Z,100328.97
2023-01-29T20:08:24.849Z,100322.44
2023-01-29T20:11:13.627Z,100287.63
2023-01-29T20:14:00.040Z,100309.44
2023-01-29T20:16:49.538Z,100300.19
2023-01-29T20:19:36.172Z,100311.06
2023-01-29T20:22:22.560Z,100307.06
2023-01-29T20:25:09.699Z,100277.78
2023-01-29T20:27:56.039Z,100301.09
2023-01-29T20:30:46.182Z,100268.91
2023-01-29T20:33:33.717Z,100289.50
2023-01-29T20:36:20.753Z,100284.91
2023-01-29T20:39:07.043Z,100248.25
2023-01-29T20:41:53.575Z,100252.25
2023-01-29T20:44:40.389Z,100253.28
2023-01-29T20:47:27.274Z,100261.00
2023-01-29T20:50:15.194Z,100249.38
2023-01-29T20:53:20.413Z,100255.59
2023-01-29T21:01:23.717Z,100232.16
2023-01-29T21:04:10.166Z,100217.88
2023-01-29T21:06:56.625Z,100230.03
2023-01-29T21:09:43.209Z,100230.03
2023-01-29T21:12:30.347Z,100221.13
2023-01-29T21:15:16.867Z,100218.19
2023-01-29T21:18:04.656Z,100214.09
2023-01-29T21:20:50.789Z,100215.75
2023-01-29T21:23:37.569Z,100198.63
2023-01-29T21:26:23.820Z,100195.22
2023-01-29T21:29:11.645Z,100206.13
2023-01-29T21:32:00.864Z,100199.09
2023-01-29T21:34:47.612Z,100187.72
2023-01-29T21:37:37.065Z,100155.81
2023-01-29T21:40:27.330Z,100158.38
2023-01-29T21:43:15.570Z,100179.84
2023-01-29T21:46:12.166Z,100170.13
2023-01-29T21:48:58.870Z,100156.91
2023-01-29T21:51:45.645Z,100097.13
2023-01-29T21:54:35.568Z,100116.97
2023-01-29T21:57:26.739Z,100161.63
2023-01-29T22:00:14.148Z,100144.63
2023-01-29T22:03:01.251Z,100139.00
2023-01-29T22:05:47.523Z,100146.03
2023-01-29T22:08:34.810Z,100079.06
2023-01-29T22:11:23.337Z,100124.78
2023-01-29T22:14:10.543Z,100116.22
2023-01-29T22:16:59.076Z,100111.56
2023-01-29T22:19:48.831Z,100108.88
2023-01-29T22:22:35.016Z,100077.47
2023-01-29T22:25:21.516Z,100108.53
2023-01-29T22:28:07.793Z,100097.16
2023-01-29T22:31:01.231Z,100082.72
2023-01-29T22:33:47.535Z,100043.81
2023-01-29T22:36:34.640Z,100073.34
2023-01-29T22:39:21.255Z,100017.63
2023-01-29T22:42:08.228Z,100049.00
2023-01-29T22:44:54.443Z,100048.72
2023-01-29T22:47:41.457Z,100020.13
2023-01-29T22:50:27.778Z,100040.91
2023-01-29T22:53:14.744Z,100001.34
2023-01-29T22:56:00.802Z,100014.09
2023-01-29T22:59:11.048Z,100008.72
2023-01-29T23:01:57.539Z,99998.75
2023-01-29T23:04:44.147Z,99995.88
2023-01-29T23:07:30.533Z,99989.13
2023-01-29T23:10:22.201Z,99995.66
2023-01-29T23:13:16.001Z,99986.00
2023-01-29T23:16:02.987Z,99984.38
2023-01-29T23:18:51.520Z,99968.69
2023-01-29T23:21:38.137Z,99958.97
2023-01-29T23:24:24.329Z,99954.06
2023-01-29T23:27:16.851Z,99948.44
2023-01-29T23:30:06.996Z,99938.97
2023-01-29T23:37:51.652Z,99919.34
2023-01-29T23:40:59.919Z,99915.84
2023-01-29T23:43:46.303Z,99877.81
2023-01-29T23:46:32.982Z,99897.53
2023-01-29T23:49:19.969Z,99894.84
2023-01-29T23:52:06.427Z,99890.59
2023-01-29T23:54:53.552Z,99885.44
2023-01-29T23:57:39.793Z,99865.63
